Time;durP1;ratioP1;P1;durP2;ratioP2;P2;SDS_P1;SDS_P2;PMS_P1;PMS_P2;Temp;Humidity;BMP_temperature;BMP_pressure;BME280_temperature;BME280_humidity;BME280_pressure;Samples;Min_cycle;Max_cycle;Signal;HPM_P1;HPM_P2
2022/04/07 00:01:06;;;;;;;;;;;15.70;94.40;;;;;;5207501;28;20349;-38
2022/04/07 00:03:37;;;;;;;;;;;15.70;94.30;;;;;;5207204;28;19939;-38
2022/04/07 00:06:09;;;;;;;;;;;15.70;94.30;;;;;;5190093;28;20370;-37
2022/04/07 00:08:41;;;;;;;;;;;15.70;94.30;;;;;;5207950;28;19921;-38
2022/04/07 00:11:12;;;;;;;;;;;15.70;94.20;;;;;;5206184;28;19928;-38
2022/04/07 00:13:43;;;;;;;;;;;15.70;94.20;;;;;;5207462;28;19968;-38
2022/04/07 00:16:13;;;;;;;;;;;15.70;94.20;;;;;;5207424;28;20319;-37
2022/04/07 00:18:45;;;;;;;;;;;15.70;94.20;;;;;;5190345;28;19928;-37
2022/04/07 00:21:24;;;;;;;;;;;15.70;94.20;;;;;;5190206;28;20012;-38
2022/04/07 00:23:55;;;;;;;;;;;15.70;94.10;;;;;;5190206;28;19971;-37
2022/04/07 00:26:26;;;;;;;;;;;15.70;94.20;;;;;;5207528;28;19921;-37
2022/04/07 00:28:57;;;;;;;;;;;15.70;94.20;;;;;;5190073;28;19925;-38
2022/04/07 00:31:31;;;;;;;;;;;15.70;94.20;;;;;;5190016;28;19936;-38
2022/04/07 00:34:02;;;;;;;;;;;15.70;94.20;;;;;;5207725;28;19928;-38
2022/04/07 00:36:32;;;;;;;;;;;15.70;94.10;;;;;;5207356;28;19921;-38
2022/04/07 00:39:03;;;;;;;;;;;15.70;94.20;;;;;;5207487;28;19921;-38
2022/04/07 00:41:37;;;;;;;;;;;15.70;94.20;;;;;;5209430;28;19921;-39
2022/04/07 00:44:08;;;;;;;;;;;15.70;94.20;;;;;;5211080;28;19921;-38
2022/04/07 00:46:39;;;;;;;;;;;15.70;94.10;;;;;;5211279;28;19967;-38
2022/04/07 00:49:10;;;;;;;;;;;15.70;94.10;;;;;;5211202;28;20432;-38
2022/04/07 00:51:42;;;;;;;;;;;15.70;94.10;;;;;;5211631;28;19921;-38
2022/04/07 00:54:13;;;;;;;;;;;15.70;94.10;;;;;;5210864;28;19921;-38
2022/04/07 00:56:44;;;;;;;;;;;15.70;94.10;;;;;;5193335;28;19921;-38
2022/04/07 00:59:15;;;;;;;;;;;15.70;94.10;;;;;;5211212;28;19978;-38
2022/04/07 01:01:46;;;;;;;;;;;15.70;94.10;;;;;;5210836;28;20001;-38
2022/04/07 01:04:18;;;;;;;;;;;15.70;94.10;;;;;;5192997;28;20298;-38
2022/04/07 01:06:49;;;;;;;;;;;15.70;94.10;;;;;;5210945;28;19951;-38
2022/04/07 01:09:20;;;;;;;;;;;15.70;94.10;;;;;;5210167;28;20573;-38
2022/04/07 01:11:51;;;;;;;;;;;15.70;94.10;;;;;;5210804;28;19959;-38
2022/04/07 01:14:22;;;;;;;;;;;15.70;94.10;;;;;;5210750;28;19975;-38
2022/04/07 01:16:53;;;;;;;;;;;15.70;94.10;;;;;;5210802;28;19928;-38
2022/04/07 01:19:24;;;;;;;;;;;15.70;94.00;;;;;;5210407;28;20361;-38
2022/04/07 01:21:54;;;;;;;;;;;15.70;94.00;;;;;;5210705;28;19971;-38
2022/04/07 01:24:30;;;;;;;;;;;15.60;94.00;;;;;;5209818;28;19928;-38
2022/04/07 01:27:01;;;;;;;;;;;15.70;94.00;;;;;;5210654;28;19925;-38
2022/04/07 01:29:32;;;;;;;;;;;15.60;93.90;;;;;;5210684;28;20328;-37
2022/04/07 01:32:05;;;;;;;;;;;15.70;93.90;;;;;;5210286;28;19944;-38
2022/04/07 01:34:36;;;;;;;;;;;15.70;93.90;;;;;;5176548;28;20485;-38
2022/04/07 01:37:07;;;;;;;;;;;15.70;93.90;;;;;;5192392;28;19925;-38
2022/04/07 01:39:39;;;;;;;;;;;15.70;93.80;;;;;;5209677;28;19928;-38
2022/04/07 01:42:10;;;;;;;;;;;15.70;93.80;;;;;;5210117;28;19920;-38
2022/04/07 01:44:42;;;;;;;;;;;15.70;93.80;;;;;;5192514;28;19936;-38
2022/04/07 01:47:14;;;;;;;;;;;15.70;93.80;;;;;;5192345;28;20409;-38
2022/04/07 01:49:46;;;;;;;;;;;15.70;93.80;;;;;;5192882;28;20366;-38
2022/04/07 01:52:17;;;;;;;;;;;15.70;93.80;;;;;;5208751;28;20455;-38
2022/04/07 01:54:48;;;;;;;;;;;15.70;93.80;;;;;;5209899;28;19921;-38
2022/04/07 01:57:23;;;;;;;;;;;15.70;93.70;;;;;;5210079;28;19960;-38
2022/04/07 01:59:54;;;;;;;;;;;15.70;93.70;;;;;;5192476;28;19921;-38
2022/04/07 02:02:25;;;;;;;;;;;15.70;93.70;;;;;;5209531;28;20378;-38
2022/04/07 02:05:00;;;;;;;;;;;15.70;93.60;;;;;;5209726;28;19964;-38
2022/04/07 02:07:31;;;;;;;;;;;15.70;93.70;;;;;;5209795;28;19935;-38
2022/04/07 02:10:03;;;;;;;;;;;15.70;93.70;;;;;;5209834;28;19921;-38
2022/04/07 02:12:37;;;;;;;;;;;15.70;93.60;;;;;;5209478;28;19925;-38
2022/04/07 02:15:08;;;;;;;;;;;15.60;93.60;;;;;;5209570;28;19975;-38
2022/04/07 02:17:39;;;;;;;;;;;15.70;93.60;;;;;;5209809;28;19928;-37
2022/04/07 02:20:10;;;;;;;;;;;15.60;93.50;;;;;;5209229;28;20362;-38
2022/04/07 02:22:41;;;;;;;;;;;15.70;93.60;;;;;;5191554;28;19998;-38
2022/04/07 02:25:12;;;;;;;;;;;15.70;93.60;;;;;;5209380;28;19924;-38
2022/04/07 02:27:44;;;;;;;;;;;15.70;93.50;;;;;;5209567;28;19955;-38
2022/04/07 02:30:15;;;;;;;;;;;15.70;93.50;;;;;;5209700;28;19928;-38
2022/04/07 02:32:48;;;;;;;;;;;15.70;93.50;;;;;;5209321;28;19921;-38
2022/04/07 02:35:19;;;;;;;;;;;15.70;93.50;;;;;;5209296;28;20317;-38
2022/04/07 02:37:49;;;;;;;;;;;15.70;93.50;;;;;;5209108;28;19928;-38
2022/04/07 02:40:20;;;;;;;;;;;15.70;93.50;;;;;;5209032;28;19921;-38
2022/04/07 02:42:51;;;;;;;;;;;15.70;93.50;;;;;;5209088;28;20396;-38
2022/04/07 02:45:22;;;;;;;;;;;15.70;93.60;;;;;;5208848;28;19928;-38
2022/04/07 02:47:53;;;;;;;;;;;15.70;93.50;;;;;;5208921;28;20313;-38
2022/04/07 02:50:24;;;;;;;;;;;15.70;93.50;;;;;;5209106;28;19920;-38
2022/04/07 02:52:54;;;;;;;;;;;15.70;93.50;;;;;;5208859;28;19928;-38
2022/04/07 02:55:27;;;;;;;;;;;15.70;93.50;;;;;;5208613;28;19921;-38
2022/04/07 02:57:58;;;;;;;;;;;15.70;93.50;;;;;;5208616;28;19932;-38
2022/04/07 03:00:29;;;;;;;;;;;15.70;93.40;;;;;;5208669;28;19920;-38
2022/04/07 03:03:00;;;;;;;;;;;15.70;93.40;;;;;;5208002;28;19921;-38
2022/04/07 03:05:31;;;;;;;;;;;15.70;93.50;;;;;;5208666;28;19921;-38
2022/04/07 03:08:02;;;;;;;;;;;15.70;93.40;;;;;;5208693;28;20278;-38
2022/04/07 03:10:33;;;;;;;;;;;15.70;93.40;;;;;;5208553;28;20362;-38
2022/04/07 03:13:04;;;;;;;;;;;15.70;93.40;;;;;;5208458;28;19967;-38
2022/04/07 03:15:35;;;;;;;;;;;15.70;93.40;;;;;;5208974;28;19928;-38
2022/04/07 03:18:05;;;;;;;;;;;15.70;93.40;;;;;;5208374;28;19921;-38
2022/04/07 03:20:36;;;;;;;;;;;15.70;93.40;;;;;;5208203;28;20397;-38
2022/04/07 03:23:07;;;;;;;;;;;15.70;93.40;;;;;;5190857;28;19932;-38
2022/04/07 03:25:38;;;;;;;;;;;15.70;93.40;;;;;;5208109;28;19921;-38
2022/04/07 03:28:09;;;;;;;;;;;15.70;93.40;;;;;;5208305;28;19921;-38
2022/04/07 03:30:40;;;;;;;;;;;15.70;93.40;;;;;;5207794;28;20016;-38
2022/04/07 03:33:11;;;;;;;;;;;15.70;93.40;;;;;;5208156;28;19933;-38
2022/04/07 03:35:42;;;;;;;;;;;15.70;93.40;;;;;;5208204;28;19928;-38
2022/04/07 03:38:13;;;;;;;;;;;15.70;93.40;;;;;;5208061;28;20274;-38
2022/04/07 03:40:44;;;;;;;;;;;15.70;93.40;;;;;;5157020;28;20397;-38
2022/04/07 03:43:15;;;;;;;;;;;15.70;93.60;;;;;;5208066;28;19925;-38
2022/04/07 03:45:46;;;;;;;;;;;15.70;93.30;;;;;;5207999;28;19975;-38
2022/04/07 03:48:16;;;;;;;;;;;15.70;93.30;;;;;;5207543;28;20286;-38
2022/04/07 03:50:47;;;;;;;;;;;15.70;93.50;;;;;;5173198;28;19960;-37
2022/04/07 03:53:18;;;;;;;;;;;14.60;94.40;;;;;;5156716;28;20360;-37
2022/04/07 03:55:49;;;;;;;;;;;13.20;97.30;;;;;;5207667;28;19921;-38
2022/04/07 03:58:20;;;;;;;;;;;12.70;98.60;;;;;;5207603;28;19921;-36
2022/04/07 04:00:52;;;;;;;;;;;12.40;99.30;;;;;;5207693;28;19921;-37
2022/04/07 04:03:23;;;;;;;;;;;12.30;99.80;;;;;;5207118;28;19979;-39
2022/04/07 04:05:54;;;;;;;;;;;12.30;99.90;;;;;;5207740;28;19960;-38
2022/04/07 04:08:25;;;;;;;;;;;12.30;99.90;;;;;;5207433;28;20420;-41
2022/04/07 04:10:56;;;;;;;;;;;12.20;99.90;;;;;;5207455;28;19975;-39
2022/04/07 04:13:29;;;;;;;;;;;12.20;99.90;;;;;;5207746;28;20372;-38
2022/04/07 04:16:01;;;;;;;;;;;12.20;99.90;;;;;;5210673;28;20408;-37
2022/04/07 04:18:32;;;;;;;;;;;12.20;99.90;;;;;;5212235;28;19928;-37
2022/04/07 04:21:03;;;;;;;;;;;12.20;99.90;;;;;;5211813;28;20384;-37
2022/04/07 04:23:35;;;;;;;;;;;12.20;99.90;;;;;;5210745;28;19921;-39
2022/04/07 04:26:06;;;;;;;;;;;12.10;99.90;;;;;;5210186;28;19924;-38
2022/04/07 04:28:37;;;;;;;;;;;12.10;99.90;;;;;;5211225;28;19931;-38
2022/04/07 04:31:08;;;;;;;;;;;12.10;99.90;;;;;;5211319;28;19937;-38
2022/04/07 04:33:39;;;;;;;;;;;12.10;99.90;;;;;;5211520;28;19925;-38
2022/04/07 04:36:10;;;;;;;;;;;12.00;99.90;;;;;;5211355;28;19921;-38
2022/04/07 04:38:40;;;;;;;;;;;12.00;99.90;;;;;;5210058;28;20436;-41
2022/04/07 04:41:11;;;;;;;;;;;12.00;99.90;;;;;;5211573;28;19921;-39
2022/04/07 04:43:42;;;;;;;;;;;12.00;99.90;;;;;;5211366;28;20278;-42
2022/04/07 04:46:13;;;;;;;;;;;12.00;99.90;;;;;;5211062;28;19921;-39
2022/04/07 04:48:44;;;;;;;;;;;12.00;99.90;;;;;;5211337;28;20388;-38
2022/04/07 04:51:15;;;;;;;;;;;12.00;99.90;;;;;;5193065;28;19928;-40
2022/04/07 04:53:46;;;;;;;;;;;12.00;99.90;;;;;;5211140;28;19921;-39
2022/04/07 04:56:17;;;;;;;;;;;12.00;99.90;;;;;;5211094;28;19928;-41
2022/04/07 04:58:48;;;;;;;;;;;12.00;99.90;;;;;;5210799;28;19921;-38
2022/04/07 05:01:19;;;;;;;;;;;12.00;99.90;;;;;;5210520;28;20338;-38
2022/04/07 05:03:50;;;;;;;;;;;12.00;99.90;;;;;;5193147;28;19968;-39
2022/04/07 05:06:21;;;;;;;;;;;12.00;99.90;;;;;;5210550;28;19920;-35
2022/04/07 05:08:51;;;;;;;;;;;12.00;99.90;;;;;;5210617;28;19975;-37
2022/04/07 05:11:22;;;;;;;;;;;12.00;99.90;;;;;;5210758;28;19921;-36
2022/04/07 05:13:53;;;;;;;;;;;12.00;99.90;;;;;;5210446;28;20362;-36
2022/04/07 05:16:24;;;;;;;;;;;12.10;99.90;;;;;;5210564;28;19921;-36
2022/04/07 05:18:55;;;;;;;;;;;12.10;99.90;;;;;;5210877;28;20366;-38
2022/04/07 05:21:26;;;;;;;;;;;12.10;99.90;;;;;;5210462;28;19968;-37
2022/04/07 05:23:57;;;;;;;;;;;12.10;99.90;;;;;;5202137;28;19936;-37
2022/04/07 05:26:28;;;;;;;;;;;12.10;99.90;;;;;;5183659;28;19925;-36
2022/04/07 05:28:59;;;;;;;;;;;12.10;99.90;;;;;;5208018;28;19921;-38
2022/04/07 05:31:30;;;;;;;;;;;12.10;99.90;;;;;;5208533;28;19928;-37
2022/04/07 05:34:00;;;;;;;;;;;12.10;99.90;;;;;;5208081;28;20018;-39
2022/04/07 05:36:31;;;;;;;;;;;12.10;99.90;;;;;;5201602;28;19922;-38
2022/04/07 05:39:02;;;;;;;;;;;12.10;99.90;;;;;;5200148;28;19921;-40
2022/04/07 05:41:33;;;;;;;;;;;12.10;99.90;;;;;;5207774;28;20023;-38
2022/04/07 05:44:04;;;;;;;;;;;12.00;99.90;;;;;;5208060;28;20004;-37
2022/04/07 05:46:35;;;;;;;;;;;12.10;99.90;;;;;;5207818;28;19921;-38
2022/04/07 05:49:08;;;;;;;;;;;12.10;99.90;;;;;;5207684;28;19921;-38
2022/04/07 05:51:41;;;;;;;;;;;12.00;99.90;;;;;;5207402;28;19925;-38
2022/04/07 05:54:17;;;;;;;;;;;12.00;99.90;;;;;;5173799;28;20001;-39
2022/04/07 05:56:49;;;;;;;;;;;12.00;99.90;;;;;;5190130;28;20015;-38
2022/04/07 05:59:20;;;;;;;;;;;12.00;99.90;;;;;;5190070;28;20024;-40
2022/04/07 06:01:51;;;;;;;;;;;12.00;99.90;;;;;;5206993;28;19921;-37
2022/04/07 06:04:22;;;;;;;;;;;12.00;99.90;;;;;;5185997;28;19921;-36
2022/04/07 06:06:53;;;;;;;;;;;12.00;99.90;;;;;;5204771;28;19928;-36
2022/04/07 06:09:24;;;;;;;;;;;12.00;99.90;;;;;;5207574;28;20297;-36
2022/04/07 06:11:55;;;;;;;;;;;12.00;99.90;;;;;;5207353;28;20329;-36
2022/04/07 06:14:26;;;;;;;;;;;12.00;99.90;;;;;;5207551;28;19921;-36
2022/04/07 06:17:01;;;;;;;;;;;12.10;99.90;;;;;;5189668;28;20356;-36
2022/04/07 06:19:32;;;;;;;;;;;12.10;99.90;;;;;;5206887;28;19921;-36
2022/04/07 06:22:05;;;;;;;;;;;12.10;99.90;;;;;;5206851;28;19928;-36
2022/04/07 06:24:36;;;;;;;;;;;12.10;99.90;;;;;;5200402;28;19925;-37
2022/04/07 06:27:07;;;;;;;;;;;12.10;99.90;;;;;;5171815;28;19971;-37
2022/04/07 06:29:38;;;;;;;;;;;12.10;99.90;;;;;;5207087;28;19921;-38
2022/04/07 06:32:09;;;;;;;;;;;12.10;99.90;;;;;;5206865;28;19943;-36
2022/04/07 06:34:40;;;;;;;;;;;12.10;99.90;;;;;;5206901;28;19921;-38
2022/04/07 06:37:11;;;;;;;;;;;12.10;99.90;;;;;;5188262;28;20321;-36
2022/04/07 06:39:41;;;;;;;;;;;12.10;99.90;;;;;;5206693;28;19975;-38
2022/04/07 06:42:13;;;;;;;;;;;12.20;99.90;;;;;;5206540;28;19925;-37
2022/04/07 06:44:45;;;;;;;;;;;12.20;99.90;;;;;;5189183;28;20393;-37
2022/04/07 06:47:16;;;;;;;;;;;12.20;99.90;;;;;;5206405;28;19921;-37
2022/04/07 06:49:50;;;;;;;;;;;12.20;99.90;;;;;;5206272;28;19925;-37
2022/04/07 06:52:21;;;;;;;;;;;12.20;99.90;;;;;;5168806;28;19925;-37
2022/04/07 06:54:52;;;;;;;;;;;12.20;99.90;;;;;;5203219;28;20461;-37
2022/04/07 06:57:23;;;;;;;;;;;12.20;99.90;;;;;;5188855;28;19976;-37
2022/04/07 06:59:54;;;;;;;;;;;12.20;99.90;;;;;;5205957;28;20330;-37
2022/04/07 07:02:25;;;;;;;;;;;12.20;99.90;;;;;;5206012;28;20297;-37
2022/04/07 07:04:56;;;;;;;;;;;12.20;99.90;;;;;;5206337;28;19921;-38
2022/04/07 07:07:27;;;;;;;;;;;12.20;99.90;;;;;;5206414;28;19932;-36
2022/04/07 07:09:59;;;;;;;;;;;12.30;99.90;;;;;;5206142;28;19921;-37
2022/04/07 07:12:33;;;;;;;;;;;12.20;99.90;;;;;;5206089;28;19921;-36
2022/04/07 07:15:11;;;;;;;;;;;12.30;99.90;;;;;;5205521;28;19921;-36
2022/04/07 07:17:43;;;;;;;;;;;12.30;99.90;;;;;;5206205;28;19960;-37
2022/04/07 07:20:21;;;;;;;;;;;12.30;99.90;;;;;;5205932;28;19964;-36
2022/04/07 07:23:02;;;;;;;;;;;12.30;99.90;;;;;;5187424;28;20008;-36
2022/04/07 07:25:33;;;;;;;;;;;12.30;99.90;;;;;;5203361;28;20019;-36
2022/04/07 07:31:18;;;;;;;;;;;12.30;99.90;;;;;;5159646;28;19936;-39
2022/04/07 07:33:49;;;;;;;;;;;12.30;99.90;;;;;;5207575;28;20424;-36
2022/04/07 07:36:20;;;;;;;;;;;12.40;99.90;;;;;;5208146;28;19925;-36
2022/04/07 07:38:53;;;;;;;;;;;12.40;99.90;;;;;;5207675;28;19921;-36
2022/04/07 07:41:25;;;;;;;;;;;12.40;99.90;;;;;;5207832;28;20313;-36
2022/04/07 07:43:56;;;;;;;;;;;12.40;99.90;;;;;;5207398;28;19920;-36
2022/04/07 07:46:30;;;;;;;;;;;12.40;99.90;;;;;;5207819;28;19921;-36
2022/04/07 07:49:01;;;;;;;;;;;12.40;99.90;;;;;;5206708;28;19921;-36
2022/04/07 07:51:32;;;;;;;;;;;12.40;99.90;;;;;;5207608;28;20267;-37
2022/04/07 07:54:04;;;;;;;;;;;12.40;99.90;;;;;;5207426;28;19993;-37
2022/04/07 07:56:35;;;;;;;;;;;12.40;99.90;;;;;;5207295;28;19931;-36
2022/04/07 07:59:06;;;;;;;;;;;12.40;99.90;;;;;;5207611;28;19960;-37
2022/04/07 08:01:37;;;;;;;;;;;12.40;99.90;;;;;;5207333;28;19965;-36
2022/04/07 08:04:08;;;;;;;;;;;12.40;99.90;;;;;;5207815;28;20282;-35
2022/04/07 08:06:39;;;;;;;;;;;12.40;99.90;;;;;;5191709;28;19988;-40
2022/04/07 08:09:13;;;;;;;;;;;12.40;99.90;;;;;;5186730;28;20012;-36
2022/04/07 08:11:44;;;;;;;;;;;12.50;99.90;;;;;;5187290;28;19956;-41
2022/04/07 08:14:15;;;;;;;;;;;12.50;99.90;;;;;;5186978;28;19928;-38
2022/04/07 08:16:46;;;;;;;;;;;12.50;99.90;;;;;;5187380;28;19928;-38
2022/04/07 08:19:17;;;;;;;;;;;12.50;99.90;;;;;;5187110;28;19932;-38
2022/04/07 08:21:48;;;;;;;;;;;12.50;99.90;;;;;;5186781;28;19921;-38
2022/04/07 08:24:22;;;;;;;;;;;12.60;99.90;;;;;;5186947;28;20004;-37
2022/04/07 08:26:53;;;;;;;;;;;12.50;99.90;;;;;;5187092;28;19984;-40
2022/04/07 08:29:24;;;;;;;;;;;12.50;99.90;;;;;;5187271;28;19975;-37
2022/04/07 08:31:55;;;;;;;;;;;12.60;99.90;;;;;;5186844;28;20371;-38
2022/04/07 08:34:26;;;;;;;;;;;12.60;99.90;;;;;;5187060;28;19922;-37
2022/04/07 08:36:56;;;;;;;;;;;12.60;99.90;;;;;;5187228;28;20009;-37
2022/04/07 08:39:27;;;;;;;;;;;12.60;99.90;;;;;;5186846;28;19925;-38
2022/04/07 08:41:58;;;;;;;;;;;12.60;99.90;;;;;;5186978;28;19944;-38
2022/04/07 08:44:31;;;;;;;;;;;12.60;99.90;;;;;;5187398;28;19922;-39
2022/04/07 08:47:02;;;;;;;;;;;12.60;99.90;;;;;;5186884;28;20371;-38
2022/04/07 08:49:37;;;;;;;;;;;12.70;99.90;;;;;;5187139;28;19945;-38
2022/04/07 08:52:08;;;;;;;;;;;12.70;99.90;;;;;;5186929;28;19927;-38
2022/04/07 08:54:39;;;;;;;;;;;12.70;99.90;;;;;;5186888;28;20434;-38
2022/04/07 08:57:10;;;;;;;;;;;12.70;99.90;;;;;;5186903;28;20016;-37
2022/04/07 08:59:41;;;;;;;;;;;12.70;99.90;;;;;;5186834;28;19960;-38
2022/04/07 09:02:12;;;;;;;;;;;12.70;99.90;;;;;;5189917;28;20293;-37
2022/04/07 09:04:44;;;;;;;;;;;12.70;99.90;;;;;;5190589;28;19929;-41
2022/04/07 09:07:14;;;;;;;;;;;12.70;99.90;;;;;;5190405;28;20302;-38
2022/04/07 09:09:46;;;;;;;;;;;12.70;99.90;;;;;;5190434;28;20012;-40
2022/04/07 09:12:22;;;;;;;;;;;12.70;99.90;;;;;;5190141;28;20011;-38
2022/04/07 09:14:57;;;;;;;;;;;12.70;99.90;;;;;;5173155;28;19928;-40
2022/04/07 09:17:28;;;;;;;;;;;12.70;99.90;;;;;;5190004;28;19957;-39
2022/04/07 09:19:59;;;;;;;;;;;12.70;99.90;;;;;;5190060;28;20001;-38
2022/04/07 09:22:30;;;;;;;;;;;12.70;99.90;;;;;;5190163;28;19937;-38
2022/04/07 09:25:04;;;;;;;;;;;12.70;99.90;;;;;;5172540;28;19922;-37
2022/04/07 09:27:38;;;;;;;;;;;12.70;99.90;;;;;;5189999;28;19947;-38
2022/04/07 09:30:12;;;;;;;;;;;12.70;99.90;;;;;;5190019;28;19928;-39
2022/04/07 09:32:43;;;;;;;;;;;12.80;99.90;;;;;;5172485;28;19928;-39
2022/04/07 09:35:14;;;;;;;;;;;12.70;99.90;;;;;;5189811;28;19921;-38
2022/04/07 09:37:44;;;;;;;;;;;12.80;99.90;;;;;;5189983;28;19928;-38
2022/04/07 09:40:16;;;;;;;;;;;12.80;99.90;;;;;;5189664;28;19921;-38
2022/04/07 09:42:50;;;;;;;;;;;12.80;99.90;;;;;;5172056;28;19925;-38
2022/04/07 09:45:21;;;;;;;;;;;12.80;99.90;;;;;;5172650;28;19987;-38
2022/04/07 09:47:52;;;;;;;;;;;12.80;99.90;;;;;;5189676;28;19922;-38
2022/04/07 09:50:28;;;;;;;;;;;12.80;99.90;;;;;;5189541;28;19921;-39
2022/04/07 09:53:03;;;;;;;;;;;12.90;99.90;;;;;;5189899;28;20255;-37
2022/04/07 09:55:34;;;;;;;;;;;12.90;99.90;;;;;;5189526;28;20354;-38
2022/04/07 09:58:07;;;;;;;;;;;12.90;99.90;;;;;;5189586;28;19928;-44
2022/04/07 10:00:38;;;;;;;;;;;12.90;99.90;;;;;;5189027;28;19925;-35
2022/04/07 10:03:09;;;;;;;;;;;12.90;99.90;;;;;;5189401;28;19967;-36
2022/04/07 10:05:40;;;;;;;;;;;12.90;99.90;;;;;;5189094;28;19925;-36
2022/04/07 10:08:11;;;;;;;;;;;12.90;99.90;;;;;;5189340;28;20338;-36
2022/04/07 10:10:42;;;;;;;;;;;13.00;99.90;;;;;;5189423;28;19922;-36
2022/04/07 10:13:13;;;;;;;;;;;13.00;99.90;;;;;;5188494;28;20347;-36
2022/04/07 10:15:44;;;;;;;;;;;12.90;99.70;;;;;;5171483;28;19921;-36
2022/04/07 10:18:17;;;;;;;;;;;13.00;99.20;;;;;;5171441;28;20019;-36
2022/04/07 10:20:49;;;;;;;;;;;13.00;98.90;;;;;;5188111;28;19928;-36
2022/04/07 10:23:40;;;;;;;;;;;13.00;99.70;;;;;;5209269;28;20361;-36
2022/04/07 10:26:11;;;;;;;;;;;13.00;99.20;;;;;;5209199;28;19921;-36
2022/04/07 10:28:42;;;;;;;;;;;13.00;99.40;;;;;;5208716;28;19932;-36
2022/04/07 10:31:14;;;;;;;;;;;13.00;99.10;;;;;;5191778;28;20443;-36
2022/04/07 10:33:46;;;;;;;;;;;13.00;98.50;;;;;;5191813;28;19920;-36
2022/04/07 10:36:18;;;;;;;;;;;13.00;98.70;;;;;;5209053;28;19925;-37
2022/04/07 10:38:51;;;;;;;;;;;13.10;99.00;;;;;;5208787;28;20015;-37
2022/04/07 10:41:37;;;;;;;;;;;13.10;98.70;;;;;;5208999;28;19921;-36
2022/04/07 10:44:14;;;;;;;;;;;13.00;98.80;;;;;;5208974;28;19956;-36
2022/04/07 10:46:45;;;;;;;;;;;13.10;98.90;;;;;;5208793;28;20374;-37
2022/04/07 10:49:23;;;;;;;;;;;13.10;99.80;;;;;;5174522;28;20443;-36
2022/04/07 10:51:55;;;;;;;;;;;13.10;98.80;;;;;;5209094;28;19952;-37
2022/04/07 10:54:28;;;;;;;;;;;13.10;99.00;;;;;;5208704;28;19925;-36
2022/04/07 10:57:01;;;;;;;;;;;13.10;99.50;;;;;;5208625;28;19921;-37
2022/04/07 10:59:34;;;;;;;;;;;13.10;99.10;;;;;;5208687;28;20381;-38
2022/04/07 11:02:06;;;;;;;;;;;13.10;98.80;;;;;;5190940;28;19927;-36
2022/04/07 11:04:41;;;;;;;;;;;13.10;97.70;;;;;;5207677;28;19925;-36
2022/04/07 11:07:15;;;;;;;;;;;13.10;97.80;;;;;;5208376;28;19928;-37
2022/04/07 11:09:54;;;;;;;;;;;13.10;97.70;;;;;;5208124;28;19921;-36
2022/04/07 11:12:37;;;;;;;;;;;13.10;97.90;;;;;;5208287;28;19940;-36
2022/04/07 11:15:17;;;;;;;;;;;13.10;98.10;;;;;;5208401;28;20370;-37
2022/04/07 11:17:51;;;;;;;;;;;13.10;98.40;;;;;;5208030;28;19921;-36
2022/04/07 11:20:22;;;;;;;;;;;13.20;98.30;;;;;;5208147;28;19968;-36
2022/04/07 11:22:57;;;;;;;;;;;13.20;98.50;;;;;;5207312;28;19925;-36
2022/04/07 11:25:31;;;;;;;;;;;13.20;98.10;;;;;;5190584;28;19944;-37
2022/04/07 11:28:11;;;;;;;;;;;13.20;98.60;;;;;;5208034;28;19964;-36
2022/04/07 11:30:42;;;;;;;;;;;13.20;98.30;;;;;;5190413;28;20290;-36
2022/04/07 11:33:25;;;;;;;;;;;13.20;97.50;;;;;;5207604;28;20048;-37
2022/04/07 11:35:59;;;;;;;;;;;13.20;98.00;;;;;;5207948;28;20370;-37
2022/04/07 11:38:34;;;;;;;;;;;13.20;97.00;;;;;;5207677;28;19921;-36
2022/04/07 11:41:09;;;;;;;;;;;13.20;96.80;;;;;;5207976;28;20289;-36
2022/04/07 11:43:42;;;;;;;;;;;13.20;97.00;;;;;;5189879;28;19984;-37
2022/04/07 11:46:13;;;;;;;;;;;13.20;97.30;;;;;;5207485;28;19952;-37
2022/04/07 11:48:44;;;;;;;;;;;13.20;96.90;;;;;;5156910;28;19929;-36
2022/04/07 11:51:17;;;;;;;;;;;13.20;96.40;;;;;;5207751;28;20263;-37
2022/04/07 11:53:54;;;;;;;;;;;13.20;96.60;;;;;;5207603;28;19921;-36
2022/04/07 11:56:27;;;;;;;;;;;13.30;96.20;;;;;;5191441;28;19921;-36
2022/04/07 11:58:59;;;;;;;;;;;13.30;96.70;;;;;;5207540;28;20388;-36
2022/04/07 12:01:30;;;;;;;;;;;13.20;96.50;;;;;;5207583;28;20011;-36
2022/04/07 12:04:02;;;;;;;;;;;13.20;96.40;;;;;;5207351;28;20408;-36
2022/04/07 12:06:33;;;;;;;;;;;13.20;95.40;;;;;;5207504;28;20304;-36
2022/04/07 12:09:05;;;;;;;;;;;13.20;97.30;;;;;;5207532;28;19936;-37
2022/04/07 12:11:36;;;;;;;;;;;13.30;96.30;;;;;;5207747;28;19940;-36
2022/04/07 12:14:08;;;;;;;;;;;13.30;96.20;;;;;;5189957;28;19972;-36
2022/04/07 12:16:42;;;;;;;;;;;13.30;96.40;;;;;;5207284;28;19928;-36
2022/04/07 12:19:13;;;;;;;;;;;13.30;96.40;;;;;;5207521;28;19925;-36
2022/04/07 12:21:54;;;;;;;;;;;13.30;96.30;;;;;;5189542;28;20282;-36
2022/04/07 12:24:26;;;;;;;;;;;13.20;97.00;;;;;;5207476;28;20378;-36
2022/04/07 12:26:59;;;;;;;;;;;13.20;97.00;;;;;;5207552;28;19921;-36
2022/04/07 12:29:31;;;;;;;;;;;13.20;97.00;;;;;;5207341;28;19924;-35
2022/04/07 12:32:06;;;;;;;;;;;13.30;96.90;;;;;;5207840;28;19936;-36
2022/04/07 12:34:51;;;;;;;;;;;13.20;96.80;;;;;;5207593;28;19928;-36
2022/04/07 12:37:26;;;;;;;;;;;13.30;97.40;;;;;;5211404;28;19921;-36
2022/04/07 12:39:57;;;;;;;;;;;13.30;97.20;;;;;;5211561;28;20400;-36
2022/04/07 12:42:28;;;;;;;;;;;13.30;96.90;;;;;;5211357;28;19929;-36
2022/04/07 12:45:03;;;;;;;;;;;13.30;96.90;;;;;;5211456;28;20381;-36
2022/04/07 12:47:34;;;;;;;;;;;13.30;97.10;;;;;;5211408;28;20301;-36
2022/04/07 12:50:05;;;;;;;;;;;13.30;97.30;;;;;;5211096;28;19943;-36
2022/04/07 12:52:36;;;;;;;;;;;13.30;97.10;;;;;;5211109;28;19921;-36
2022/04/07 12:55:07;;;;;;;;;;;13.20;96.90;;;;;;5211204;28;20355;-36
2022/04/07 12:57:39;;;;;;;;;;;13.20;96.90;;;;;;5210814;28;19921;-36
2022/04/07 13:00:12;;;;;;;;;;;13.30;96.90;;;;;;5210995;28;19947;-36
2022/04/07 13:02:52;;;;;;;;;;;13.30;96.10;;;;;;5210883;28;19925;-36
2022/04/07 13:05:24;;;;;;;;;;;13.30;96.00;;;;;;5211079;28;19921;-36
2022/04/07 13:07:56;;;;;;;;;;;13.30;96.00;;;;;;5210730;28;20015;-36
2022/04/07 13:10:27;;;;;;;;;;;13.30;96.30;;;;;;5210532;28;19925;-35
2022/04/07 13:12:58;;;;;;;;;;;13.20;96.10;;;;;;5210752;28;19925;-36
2022/04/07 13:15:29;;;;;;;;;;;13.20;96.40;;;;;;5193307;28;20325;-36
2022/04/07 13:18:01;;;;;;;;;;;13.30;96.40;;;;;;5210392;28;19925;-36
2022/04/07 13:20:32;;;;;;;;;;;13.20;96.30;;;;;;5210661;28;19921;-35
2022/04/07 13:23:03;;;;;;;;;;;13.30;96.80;;;;;;5210318;28;19921;-36
2022/04/07 13:25:34;;;;;;;;;;;13.30;97.70;;;;;;5210268;28;19921;-36
2022/04/07 13:28:05;;;;;;;;;;;13.30;96.30;;;;;;5210224;28;19928;-36
2022/04/07 13:30:36;;;;;;;;;;;13.40;96.10;;;;;;5210708;28;19975;-36
2022/04/07 13:33:07;;;;;;;;;;;13.50;96.20;;;;;;5192485;28;19951;-37
2022/04/07 13:35:38;;;;;;;;;;;13.50;96.00;;;;;;5209255;28;19924;-36
2022/04/07 13:38:08;;;;;;;;;;;13.40;95.60;;;;;;5209558;28;20286;-36
2022/04/07 13:40:41;;;;;;;;;;;13.40;96.00;;;;;;5209644;28;19921;-36
2022/04/07 13:43:12;;;;;;;;;;;13.40;95.80;;;;;;5209420;28;19944;-36
2022/04/07 13:45:44;;;;;;;;;;;13.40;96.10;;;;;;5191927;28;20374;-35
2022/04/07 13:48:15;;;;;;;;;;;13.40;96.00;;;;;;5209197;28;20003;-36
2022/04/07 13:50:46;;;;;;;;;;;13.40;95.60;;;;;;5209326;28;19921;-36
2022/04/07 13:53:18;;;;;;;;;;;13.40;96.00;;;;;;5209479;28;19979;-36
2022/04/07 13:55:49;;;;;;;;;;;13.30;96.10;;;;;;5209317;28;19921;-36
2022/04/07 13:58:20;;;;;;;;;;;13.30;96.00;;;;;;5209167;28;19936;-36
2022/04/07 14:00:51;;;;;;;;;;;13.30;96.30;;;;;;5208936;28;19924;-36
2022/04/07 14:03:22;;;;;;;;;;;13.30;96.60;;;;;;5209281;28;19975;-36
2022/04/07 14:05:57;;;;;;;;;;;13.30;96.60;;;;;;5209706;28;20358;-36
2022/04/07 14:08:28;;;;;;;;;;;13.40;96.60;;;;;;5191000;28;20028;-36
2022/04/07 14:10:59;;;;;;;;;;;13.30;96.60;;;;;;5208925;28;19928;-35
2022/04/07 14:13:30;;;;;;;;;;;13.30;96.40;;;;;;5191691;28;20324;-35
2022/04/07 14:16:01;;;;;;;;;;;13.30;96.90;;;;;;5208342;28;19944;-36
2022/04/07 14:18:35;;;;;;;;;;;13.30;96.90;;;;;;5209009;28;19956;-35
2022/04/07 14:21:07;;;;;;;;;;;13.30;96.60;;;;;;5208758;28;20024;-36
2022/04/07 14:23:38;;;;;;;;;;;13.40;96.40;;;;;;5208789;28;20384;-36
2022/04/07 14:26:09;;;;;;;;;;;13.30;96.20;;;;;;5208693;28;19928;-34
2022/04/07 14:28:40;;;;;;;;;;;13.30;96.30;;;;;;5191264;28;20290;-36
2022/04/07 14:31:11;;;;;;;;;;;13.30;96.40;;;;;;5208708;28;19921;-37
2022/04/07 14:33:44;;;;;;;;;;;13.30;96.50;;;;;;5208667;28;20358;-37
2022/04/07 14:36:16;;;;;;;;;;;13.40;96.90;;;;;;5208423;28;19948;-37
2022/04/07 14:38:46;;;;;;;;;;;13.40;96.40;;;;;;5208058;28;19925;-37
2022/04/07 14:41:17;;;;;;;;;;;13.40;96.50;;;;;;5208313;28;20020;-37
2022/04/07 14:43:49;;;;;;;;;;;13.40;96.30;;;;;;5208340;28;19921;-37
2022/04/07 14:46:20;;;;;;;;;;;13.40;96.50;;;;;;5208282;28;19921;-36